createdAt,value
2018-06-02T17:16:27.193Z,3.50
2018-06-02T17:18:54.758Z,3.70
2018-06-02T17:21:23.090Z,3.90
2018-06-02T17:23:50.593Z,3.73
2018-06-02T17:26:18.211Z,3.73
2018-06-02T17:28:45.717Z,4.23
2018-06-02T17:31:13.290Z,5.00
2018-06-02T17:33:41.638Z,3.93
2018-06-02T17:36:09.152Z,3.90
2018-06-02T17:38:36.798Z,3.50
2018-06-02T17:41:04.274Z,3.70
2018-06-02T17:43:31.774Z,3.47
2018-06-02T17:45:59.262Z,3.37
2018-06-02T17:48:26.730Z,3.70
2018-06-02T17:50:54.979Z,3.40
2018-06-02T17:53:22.507Z,3.70
2018-06-02T17:55:50.026Z,3.33
2018-06-02T17:58:18.331Z,3.67
2018-06-02T18:00:45.910Z,3.33
2018-06-02T18:03:13.367Z,3.47
2018-06-02T18:05:40.923Z,3.33
2018-06-02T18:08:08.389Z,3.10
2018-06-02T18:10:35.976Z,3.07
2018-06-02T18:13:03.450Z,3.67
2018-06-02T18:15:30.926Z,3.60
2018-06-02T18:17:59.179Z,3.50
2018-06-02T18:20:26.667Z,3.50
2018-06-02T18:22:54.909Z,3.40
2018-06-02T18:25:22.479Z,3.53
2018-06-02T18:27:50.779Z,3.57
2018-06-02T18:30:19.020Z,3.47
2018-06-02T18:32:46.513Z,3.77
2018-06-02T18:35:14.851Z,3.50
2018-06-02T18:37:42.331Z,3.63
2018-06-02T18:40:09.805Z,3.40
2018-06-02T18:42:38.036Z,3.80
2018-06-02T18:45:05.526Z,3.93
2018-06-02T18:47:33.075Z,3.70
2018-06-02T18:50:00.571Z,3.83
2018-06-02T18:52:28.843Z,3.80
2018-06-02T18:54:56.342Z,4.10
2018-06-02T18:57:23.932Z,3.93
2018-06-02T18:59:51.409Z,4.00
2018-06-02T19:02:18.894Z,4.27
2018-06-02T19:04:46.489Z,4.23
2018-06-02T19:07:13.993Z,4.00
2018-06-02T19:09:41.463Z,3.87
2018-06-02T19:12:09.702Z,3.97
2018-06-02T19:14:37.301Z,4.00
2018-06-02T19:17:05.532Z,4.07
2018-06-02T19:19:33.118Z,3.60
2018-06-02T19:22:00.682Z,4.00
2018-06-02T19:24:28.389Z,4.30
2018-06-02T19:26:55.852Z,4.20
2018-06-02T19:29:23.355Z,4.50
2018-06-02T19:31:50.798Z,4.07
2018-06-02T19:34:18.274Z,4.20
2018-06-02T19:36:45.742Z,4.10
2018-06-02T19:39:14.015Z,4.30
2018-06-02T19:41:41.570Z,4.17
2018-06-02T19:44:09.067Z,4.30
2018-06-02T19:46:36.587Z,4.50
2018-06-02T19:49:04.158Z,4.33
2018-06-02T19:51:32.375Z,4.00
2018-06-02T19:53:59.951Z,4.57
2018-06-02T19:56:27.442Z,4.30
2018-06-02T19:58:54.919Z,4.23
2018-06-02T20:01:23.223Z,4.87
2018-06-02T20:03:50.639Z,4.90
2018-06-02T20:06:19.099Z,4.73
2018-06-02T20:08:46.623Z,5.03
2018-06-02T20:11:14.155Z,4.90
2018-06-02T20:13:41.622Z,4.93
2018-06-02T20:16:09.166Z,4.87
2018-06-02T20:18:36.638Z,5.00
2018-06-02T20:21:04.204Z,4.80
2018-06-02T20:23:31.853Z,4.40
2018-06-02T20:26:00.112Z,4.90
2018-06-02T20:28:27.631Z,5.03
2018-06-02T20:30:55.106Z,5.20
2018-06-02T20:33:22.574Z,4.63
2018-06-02T20:35:50.055Z,4.47
2018-06-02T20:38:17.520Z,4.97
2018-06-02T20:40:46.668Z,4.93
2018-06-02T20:43:14.138Z,5.30
2018-06-02T20:45:41.617Z,5.07
2018-06-02T20:48:09.111Z,5.10
2018-06-02T20:50:37.428Z,4.93
2018-06-02T20:53:04.920Z,4.83
2018-06-02T20:55:32.403Z,5.00
2018-06-02T20:58:00.636Z,5.70
2018-06-02T21:00:28.111Z,5.70
2018-06-02T21:02:55.779Z,5.73
2018-06-02T21:05:23.279Z,5.47
2018-06-02T21:07:51.529Z,5.07
2018-06-02T21:10:19.028Z,5.47
2018-06-02T21:12:46.692Z,5.60
2018-06-02T21:15:14.227Z,6.20
2018-06-02T21:17:42.454Z,5.80
2018-06-02T21:20:09.942Z,5.90
2018-06-02T21:22:37.486Z,5.60
2018-06-02T21:25:04.959Z,5.53
2018-06-02T21:27:32.413Z,6.30
2018-06-02T21:29:59.978Z,5.93
2018-06-02T21:32:27.570Z,5.77
2018-06-02T21:34:55.149Z,5.60
2018-06-02T21:37:22.683Z,6.10
2018-06-02T21:39:50.306Z,5.40
2018-06-02T21:42:17.761Z,5.60
2018-06-02T21:44:45.978Z,5.73
2018-06-02T21:47:14.198Z,6.07
2018-06-02T21:49:41.711Z,6.00
2018-06-02T21:52:09.930Z,6.40
2018-06-02T21:54:37.417Z,6.10
2018-06-02T21:57:05.033Z,6.07
2018-06-02T21:59:32.607Z,6.20
2018-06-02T22:02:00.145Z,6.73
2018-06-02T22:04:27.655Z,6.50
2018-06-02T22:06:55.253Z,6.47
2018-06-02T22:09:22.946Z,6.40
2018-06-02T22:11:50.941Z,6.93
2018-06-02T22:14:18.511Z,7.00
2018-06-02T22:16:46.077Z,6.57
2018-06-02T22:19:13.547Z,6.60
2018-06-02T22:22:13.257Z,6.60
2018-06-02T22:24:43.972Z,6.23
2018-06-02T22:27:12.280Z,6.10
2018-06-02T22:29:42.231Z,6.20
2018-06-02T22:32:11.424Z,5.73
2018-06-02T22:34:40.047Z,6.00
2018-06-02T22:37:08.398Z,5.90
2018-06-02T22:39:37.572Z,5.40
2018-06-02T22:42:06.915Z,6.40
2018-06-02T22:44:37.590Z,6.03
2018-06-02T22:47:05.864Z,6.07
2018-06-02T22:49:34.134Z,6.70
2018-06-02T22:52:02.798Z,6.43
2018-06-02T22:54:33.006Z,6.00
2018-06-02T22:57:01.074Z,6.90
2018-06-02T22:59:30.569Z,6.43
2018-06-02T23:02:01.040Z,6.57
2018-06-02T23:04:29.688Z,6.23
2018-06-02T23:06:58.002Z,5.93
2018-06-02T23:09:26.267Z,6.10
2018-06-02T23:11:54.674Z,5.50
2018-06-02T23:14:23.154Z,5.43
2018-06-02T23:16:51.446Z,5.93
2018-06-02T23:19:19.723Z,5.67
2018-06-02T23:21:47.998Z,5.70
2018-06-02T23:24:16.258Z,5.27
2018-06-02T23:26:44.553Z,5.60
2018-06-02T23:29:12.814Z,5.20
2018-06-02T23:31:41.675Z,5.60
2018-06-02T23:34:12.687Z,5.43
2018-06-02T23:36:44.747Z,5.50
2018-06-02T23:39:13.044Z,5.23
2018-06-02T23:41:41.325Z,5.50
2018-06-02T23:44:09.630Z,5.20
2018-06-02T23:46:40.927Z,5.03
2018-06-02T23:49:09.226Z,5.17
2018-06-02T23:51:37.481Z,5.07
2018-06-02T23:54:06.617Z,5.73
2018-06-02T23:56:35.182Z,6.00
2018-06-02T23:59:03.458Z,5.47
